Time;durP1;ratioP1;P1;durP2;ratioP2;P2;SDS_P1;SDS_P2;PMS_P1;PMS_P2;Temp;Humidity;BMP_temperature;BMP_pressure;BME280_temperature;BME280_humidity;BME280_pressure;Samples;Min_cycle;Max_cycle;Signal;HPM_P1;HPM_P2
2021/01/02 00:01:37;;;;;;;1.83;0.90;;;4.90;99.90;;;;;;5068279;28;20240;-81
2021/01/02 00:04:25;;;;;;;1.97;0.93;;;4.90;99.90;;;;;;5067124;28;20354;-81
2021/01/02 00:07:22;;;;;;;2.53;1.20;;;4.90;99.90;;;;;;5067755;28;20189;-89
2021/01/02 00:09:54;;;;;;;0.70;0.70;;;4.80;99.90;;;;;;5067171;28;20201;-80
2021/01/02 00:12:45;;;;;;;1.20;0.80;;;4.80;99.90;;;;;;5060460;28;20197;-82
2021/01/02 00:15:17;;;;;;;1.20;0.90;;;4.80;99.90;;;;;;5068219;28;20193;-82
2021/01/02 00:18:18;;;;;;;5.43;1.20;;;4.80;99.90;;;;;;5066550;28;20185;-80
2021/01/02 00:21:03;;;;;;;3.30;1.40;;;4.80;99.90;;;;;;5066384;28;20258;-82
2021/01/02 00:24:00;;;;;;;1.03;0.93;;;4.80;99.90;;;;;;5047470;28;20190;-80
2021/01/02 00:26:34;;;;;;;2.93;1.20;;;4.80;99.90;;;;;;5048073;28;20186;-80
2021/01/02 00:29:03;;;;;;;1.70;1.30;;;4.80;99.90;;;;;;5047021;28;20763;-80
2021/01/02 00:31:55;;;;;;;3.93;2.03;;;4.90;99.90;;;;;;5048234;28;20194;-80
2021/01/02 00:34:52;;;;;;;1.77;1.10;;;4.90;99.90;;;;;;5044460;28;20209;-80
2021/01/02 00:37:25;;;;;;;2.07;1.37;;;4.80;99.90;;;;;;5047136;28;20571;-85
2021/01/02 00:40:04;;;;;;;3.60;1.47;;;4.80;99.90;;;;;;5048112;28;20230;-80
2021/01/02 00:42:31;;;;;;;1.67;1.33;;;4.80;99.90;;;;;;5047839;28;20221;-82
2021/01/02 00:44:59;;;;;;;2.47;1.40;;;4.80;99.90;;;;;;5046424;28;20618;-81
2021/01/02 00:47:27;;;;;;;2.00;1.77;;;4.80;99.90;;;;;;5047554;28;20190;-80
2021/01/02 00:49:55;;;;;;;3.17;1.80;;;4.80;99.90;;;;;;5047533;28;20206;-80
2021/01/02 00:52:53;;;;;;;1.97;1.40;;;4.80;99.90;;;;;;5047535;28;20285;-88
2021/01/02 00:55:32;;;;;;;2.83;1.80;;;4.80;99.90;;;;;;5047295;28;20285;-80
2021/01/02 00:58:05;;;;;;;4.07;1.87;;;4.70;99.90;;;;;;5047246;28;20186;-84
2021/01/02 01:00:34;;;;;;;3.43;1.73;;;4.80;99.90;;;;;;5048320;28;20244;-82
2021/01/02 01:03:15;;;;;;;1.77;1.50;;;4.70;99.90;;;;;;5047014;28;20946;-79
2021/01/02 01:05:47;;;;;;;2.97;1.70;;;4.70;99.90;;;;;;5047461;28;20205;-81
2021/01/02 01:08:17;;;;;;;4.43;2.30;;;4.70;99.90;;;;;;5048108;28;20202;-93
2021/01/02 01:10:45;;;;;;;4.83;1.90;;;4.70;99.90;;;;;;5047303;28;20194;-81
2021/01/02 01:13:23;;;;;;;3.07;2.37;;;4.70;99.90;;;;;;5046564;28;20631;-80
2021/01/02 01:15:50;;;;;;;5.37;2.43;;;4.70;99.90;;;;;;5048188;28;20194;-93
2021/01/02 01:18:32;;;;;;;2.50;2.30;;;4.60;99.90;;;;;;5047115;28;20927;-85
2021/01/02 01:21:01;;;;;;;3.70;2.40;;;4.60;99.90;;;;;;5049585;28;20209;-82
2021/01/02 01:23:49;;;;;;;3.63;2.20;;;4.60;99.90;;;;;;5068024;28;20228;-81
2021/01/02 01:26:51;;;;;;;2.60;2.20;;;4.50;99.90;;;;;;5072188;22;20197;-80
2021/01/02 01:29:25;;;;;;;4.00;3.60;;;4.50;99.90;;;;;;5019491;28;20214;-81
2021/01/02 01:31:56;;;;;;;3.47;2.77;;;4.40;99.90;;;;;;5028306;28;20203;-85
2021/01/02 01:34:24;;;;;;;3.00;2.60;;;4.40;99.90;;;;;;5026283;28;20191;-83
2021/01/02 01:36:51;;;;;;;3.37;2.50;;;4.30;99.90;;;;;;5027564;28;20199;-80
2021/01/02 01:39:22;;;;;;;4.37;2.97;;;4.30;99.90;;;;;;5029216;28;20249;-87
2021/01/02 01:41:57;;;;;;;4.83;3.30;;;4.30;99.90;;;;;;5029485;28;21003;-92
2021/01/02 01:44:44;;;;;;;4.07;3.20;;;4.30;99.90;;;;;;5029989;28;20210;-86
2021/01/02 01:47:14;;;;;;;4.30;3.07;;;4.30;99.90;;;;;;5028663;28;20218;-88
2021/01/02 01:50:13;;;;;;;7.13;3.53;;;4.30;99.90;;;;;;5030664;28;20194;-86
2021/01/02 01:53:04;;;;;;;4.47;3.27;;;4.30;99.90;;;;;;5027045;28;20206;-92
2021/01/02 01:55:48;;;;;;;4.43;3.53;;;4.30;99.90;;;;;;5029942;28;20187;-90
2021/01/02 01:58:19;;;;;;;5.27;3.37;;;4.30;99.90;;;;;;5030044;28;20229;-94
2021/01/02 02:00:49;;;;;;;6.00;3.70;;;4.30;99.90;;;;;;5029797;28;20302;-91
2021/01/02 02:03:22;;;;;;;4.87;3.50;;;4.30;99.90;;;;;;5029945;28;20803;-88
2021/01/02 02:05:59;;;;;;;5.17;3.87;;;4.30;99.90;;;;;;5027691;28;20206;-88
2021/01/02 02:08:41;;;;;;;5.17;3.50;;;4.30;99.90;;;;;;5027415;28;20197;-92
2021/01/02 02:11:36;;;;;;;6.93;3.97;;;4.30;99.90;;;;;;5029406;28;20194;-92
2021/01/02 02:14:10;;;;;;;6.20;3.67;;;4.30;99.90;;;;;;5030112;28;20205;-93
2021/01/02 02:16:41;;;;;;;4.87;3.67;;;4.30;99.90;;;;;;5030019;28;20198;-86
2021/01/02 02:19:39;;;;;;;4.10;3.33;;;4.20;99.90;;;;;;5029979;28;20202;-91
2021/01/02 02:22:14;;;;;;;4.80;3.90;;;4.20;99.90;;;;;;5040807;28;20229;-89
2021/01/02 02:24:43;;;;;;;5.83;3.20;;;4.20;99.90;;;;;;5049850;28;20194;-93
2021/01/02 02:27:13;;;;;;;4.30;3.47;;;4.10;99.90;;;;;;5049572;28;20249;-89
2021/01/02 02:29:51;;;;;;;4.87;3.80;;;4.00;99.90;;;;;;5049738;28;20206;-92
2021/01/02 02:32:18;;;;;;;4.80;3.33;;;4.00;99.90;;;;;;5050066;28;20194;-90
2021/01/02 02:34:46;;;;;;;4.27;3.57;;;3.90;99.90;;;;;;5049877;28;20588;-92
2021/01/02 02:42:17;;;;;;;5.63;4.47;;;3.80;99.90;;;;;;5048172;28;20226;-93
2021/01/02 02:44:48;;;;;;;5.27;4.73;;;3.70;99.90;;;;;;5050296;28;20202;-85
2021/01/02 02:47:18;;;;;;;6.17;4.20;;;3.70;99.90;;;;;;5049589;28;20190;-87
2021/01/02 02:49:48;;;;;;;6.10;4.40;;;3.60;99.90;;;;;;5049015;28;20312;-93
2021/01/02 02:52:24;;;;;;;4.63;4.13;;;3.60;99.90;;;;;;5047978;28;20233;-93
2021/01/02 02:54:52;;;;;;;7.23;4.20;;;3.50;99.90;;;;;;5049562;28;20201;-91
2021/01/02 02:57:21;;;;;;;5.30;3.63;;;3.50;99.90;;;;;;5050050;28;20236;-92
2021/01/02 02:59:47;;;;;;;4.40;4.00;;;3.50;99.90;;;;;;5054174;28;20479;-93
2021/01/02 03:02:14;;;;;;;3.57;3.20;;;3.40;99.90;;;;;;5053884;28;20618;-93
2021/01/02 03:04:41;;;;;;;4.60;3.83;;;3.40;99.90;;;;;;5053727;28;20228;-93
2021/01/02 03:07:07;;;;;;;4.73;3.37;;;3.40;99.90;;;;;;5052559;28;20597;-92
2021/01/02 03:09:34;;;;;;;4.03;3.07;;;3.30;99.90;;;;;;5053441;28;20256;-93
2021/01/02 03:12:00;;;;;;;4.70;2.80;;;3.30;99.90;;;;;;5053068;28;20209;-92
2021/01/02 03:14:28;;;;;;;2.90;2.43;;;3.30;99.90;;;;;;5053979;28;20213;-93
2021/01/02 03:16:56;;;;;;;3.27;2.33;;;3.20;99.90;;;;;;5053397;28;20194;-87
2021/01/02 03:19:24;;;;;;;5.07;2.60;;;3.30;99.90;;;;;;5050070;28;20263;-92
2021/01/02 03:21:50;;;;;;;3.87;2.30;;;3.20;99.90;;;;;;5046811;28;20221;-93
2021/01/02 03:24:16;;;;;;;4.50;2.70;;;3.20;99.90;;;;;;5046688;28;20201;-92
2021/01/02 03:26:43;;;;;;;3.37;2.50;;;3.20;99.90;;;;;;5049851;28;20274;-91
2021/01/02 03:29:09;;;;;;;2.43;2.10;;;3.10;99.90;;;;;;5050106;28;20201;-93
2021/01/02 03:31:36;;;;;;;4.43;2.20;;;3.10;99.90;;;;;;5050045;28;20561;-92
2021/01/02 03:34:03;;;;;;;2.43;1.97;;;3.10;99.90;;;;;;5049759;28;20187;-92
2021/01/02 03:36:29;;;;;;;3.60;2.47;;;3.10;99.90;;;;;;5048553;28;20233;-91
2021/01/02 03:38:57;;;;;;;3.50;2.37;;;3.00;99.90;;;;;;5048543;28;20210;-92
2021/01/02 03:41:25;;;;;;;3.37;2.57;;;3.00;99.90;;;;;;5050965;28;20230;-92
2021/01/02 03:43:51;;;;;;;3.90;2.50;;;3.00;99.90;;;;;;5052051;28;20217;-92
2021/01/02 03:46:18;;;;;;;5.37;2.70;;;3.00;99.90;;;;;;5051397;28;20198;-92
2021/01/02 03:48:46;;;;;;;3.27;2.40;;;3.00;99.90;;;;;;5052230;28;20197;-92
2021/01/02 03:51:12;;;;;;;4.97;2.30;;;2.90;99.90;;;;;;5052571;28;20212;-93
2021/01/02 03:53:38;;;;;;;3.67;2.63;;;3.00;99.90;;;;;;5053491;28;20279;-90
2021/01/02 03:56:05;;;;;;;4.23;3.13;;;3.00;99.90;;;;;;5053412;28;20542;-92
2021/01/02 03:58:31;;;;;;;3.40;2.83;;;3.00;99.90;;;;;;5054513;28;20202;-90
2021/01/02 04:00:58;;;;;;;5.10;2.90;;;3.00;99.90;;;;;;5054484;28;20217;-92
2021/01/02 04:03:24;;;;;;;4.00;3.00;;;3.00;99.90;;;;;;5054919;28;20225;-92
2021/01/02 04:05:51;;;;;;;4.73;2.77;;;3.00;99.90;;;;;;5054290;28;20206;-93
2021/01/02 04:08:17;;;;;;;7.47;3.10;;;3.00;99.90;;;;;;5053471;28;20190;-88
2021/01/02 04:10:44;;;;;;;6.23;3.53;;;3.00;99.90;;;;;;5053060;28;20202;-93
2021/01/02 04:13:10;;;;;;;4.30;3.10;;;3.00;99.90;;;;;;5052989;28;20198;-93
2021/01/02 04:15:36;;;;;;;4.97;3.70;;;2.90;99.90;;;;;;5054985;28;20198;-91
2021/01/02 04:18:03;;;;;;;7.17;3.70;;;2.90;99.90;;;;;;5066391;28;20194;-91
2021/01/02 04:20:29;;;;;;;5.70;3.60;;;2.90;99.90;;;;;;5051339;28;20213;-82
2021/01/02 04:22:56;;;;;;;5.43;3.40;;;2.90;99.90;;;;;;5048314;28;20229;-84
2021/01/02 04:25:23;;;;;;;6.13;4.50;;;2.90;99.90;;;;;;5049261;28;20213;-81
2021/01/02 04:27:49;;;;;;;5.63;3.73;;;2.80;99.90;;;;;;5049261;28;20201;-80
2021/01/02 04:30:16;;;;;;;4.90;3.90;;;2.80;99.90;;;;;;5048113;28;20198;-81
2021/01/02 04:32:46;;;;;;;5.27;3.73;;;2.80;99.90;;;;;;5049850;28;20202;-82
2021/01/02 04:35:13;;;;;;;4.17;3.53;;;2.80;99.90;;;;;;5048181;28;20205;-81
2021/01/02 04:37:41;;;;;;;4.73;3.47;;;2.80;99.90;;;;;;5049401;28;20198;-82
2021/01/02 04:40:10;;;;;;;3.97;3.07;;;2.80;99.90;;;;;;5048178;28;20251;-84
2021/01/02 04:42:40;;;;;;;3.93;2.90;;;2.80;99.90;;;;;;5049785;28;20237;-81
2021/01/02 04:45:09;;;;;;;5.23;3.40;;;2.70;99.90;;;;;;5049146;28;20197;-83
2021/01/02 04:47:36;;;;;;;6.23;3.23;;;2.70;99.90;;;;;;5049211;28;20202;-81
2021/01/02 04:50:05;;;;;;;7.20;3.77;;;2.70;99.90;;;;;;5047405;28;20554;-86
2021/01/02 04:52:32;;;;;;;4.23;2.97;;;2.70;99.90;;;;;;5048604;28;20560;-81
2021/01/02 04:54:59;;;;;;;4.03;3.00;;;2.70;99.90;;;;;;5048277;28;20201;-81
2021/01/02 04:57:31;;;;;;;4.83;3.17;;;2.70;99.90;;;;;;5048051;28;20200;-82
2021/01/02 04:59:57;;;;;;;5.40;3.00;;;2.60;99.90;;;;;;5048778;28;20216;-82
2021/01/02 05:02:23;;;;;;;4.93;2.80;;;2.60;99.90;;;;;;5050213;28;20228;-89
2021/01/02 05:04:50;;;;;;;3.90;2.30;;;2.60;99.90;;;;;;5049246;28;20214;-80
2021/01/02 05:07:24;;;;;;;4.30;2.80;;;2.60;99.90;;;;;;5048480;28;20206;-91
2021/01/02 05:09:51;;;;;;;6.37;3.20;;;2.60;99.90;;;;;;5050542;28;20248;-84
2021/01/02 05:12:29;;;;;;;5.10;3.07;;;2.60;99.90;;;;;;5051323;28;20201;-90
2021/01/02 05:15:07;;;;;;;5.27;3.07;;;2.60;99.90;;;;;;5051337;28;20198;-88
2021/01/02 05:17:33;;;;;;;4.67;2.87;;;2.60;99.90;;;;;;5051145;28;20190;-87
2021/01/02 05:20:02;;;;;;;5.83;3.83;;;2.60;99.90;;;;;;5050501;28;20216;-92
2021/01/02 05:22:28;;;;;;;6.33;3.17;;;2.60;99.90;;;;;;5048927;28;20233;-89
2021/01/02 05:25:10;;;;;;;6.70;4.03;;;2.60;99.90;;;;;;5055489;28;20197;-91
2021/01/02 05:27:39;;;;;;;7.77;4.30;;;2.60;99.90;;;;;;5058074;28;20252;-89
2021/01/02 05:30:17;;;;;;;8.00;3.57;;;2.60;99.90;;;;;;5053898;28;20207;-91
2021/01/02 05:33:04;;;;;;;5.77;4.10;;;2.70;99.90;;;;;;5051504;28;20194;-91
2021/01/02 05:35:40;;;;;;;7.07;4.57;;;2.70;99.90;;;;;;5045894;28;20190;-92
2021/01/02 05:38:15;;;;;;;8.53;5.50;;;2.70;99.90;;;;;;5051393;28;20209;-91
2021/01/02 05:40:43;;;;;;;6.97;4.80;;;2.70;99.90;;;;;;5051006;28;20201;-90
2021/01/02 05:43:12;;;;;;;8.07;5.30;;;2.70;99.90;;;;;;5051069;28;20225;-91
2021/01/02 05:45:38;;;;;;;9.47;5.43;;;2.70;99.90;;;;;;5051155;28;20429;-92
2021/01/02 05:48:14;;;;;;;8.13;5.67;;;2.70;99.90;;;;;;5050941;28;20206;-92
2021/01/02 05:50:44;;;;;;;6.27;5.10;;;2.70;99.90;;;;;;5045659;28;20741;-91
2021/01/02 05:53:26;;;;;;;10.97;5.43;;;2.70;99.90;;;;;;5045225;28;20236;-91
2021/01/02 05:56:05;;;;;;;15.80;6.33;;;2.70;99.90;;;;;;5051150;28;20248;-89
2021/01/02 05:58:36;;;;;;;8.37;5.83;;;2.60;99.90;;;;;;5050921;28;20244;-91
2021/01/02 06:01:09;;;;;;;10.33;5.90;;;2.70;99.90;;;;;;5050379;28;20213;-91
2021/01/02 06:03:36;;;;;;;10.07;5.40;;;2.70;99.90;;;;;;5050709;28;20229;-92
2021/01/02 06:06:05;;;;;;;7.20;4.77;;;2.70;99.90;;;;;;5050751;28;20201;-90
2021/01/02 06:08:34;;;;;;;7.90;5.37;;;2.70;99.90;;;;;;5050721;28;20571;-90
2021/01/02 06:11:03;;;;;;;6.70;4.80;;;2.70;99.90;;;;;;5048875;28;20244;-91
2021/01/02 06:13:33;;;;;;;6.07;4.27;;;2.70;99.90;;;;;;5050642;28;20198;-88
2021/01/02 06:16:01;;;;;;;6.97;4.23;;;2.70;99.90;;;;;;5049099;28;20259;-89
2021/01/02 06:18:28;;;;;;;7.03;4.37;;;2.70;99.90;;;;;;5049405;28;20202;-91
2021/01/02 06:20:56;;;;;;;8.53;4.60;;;2.60;99.90;;;;;;5050107;28;20908;-91
2021/01/02 06:23:24;;;;;;;7.67;4.97;;;2.70;99.90;;;;;;5050534;28;20264;-92
2021/01/02 06:25:54;;;;;;;5.77;5.10;;;2.60;99.90;;;;;;5050346;28;20612;-91
2021/01/02 06:28:21;;;;;;;5.47;4.60;;;2.60;99.90;;;;;;5050020;28;20210;-91
2021/01/02 06:30:48;;;;;;;7.40;4.90;;;2.70;99.90;;;;;;5050810;28;20209;-92
2021/01/02 06:33:16;;;;;;;8.87;5.43;;;2.70;99.90;;;;;;5052951;28;20194;-91
2021/01/02 06:35:44;;;;;;;7.77;5.80;;;2.60;99.90;;;;;;5053235;28;20299;-90
2021/01/02 06:38:13;;;;;;;5.97;4.87;;;2.60;99.90;;;;;;5051444;28;20214;-91
2021/01/02 06:40:42;;;;;;;8.57;5.70;;;2.60;99.90;;;;;;5052096;28;20291;-92
2021/01/02 06:43:10;;;;;;;5.87;4.70;;;2.60;99.90;;;;;;5053972;28;20229;-86
2021/01/02 06:46:11;;;;;;;5.60;4.47;;;2.60;99.90;;;;;;5054058;28;20647;-90
2021/01/02 06:48:44;;;;;;;6.10;4.00;;;2.60;99.90;;;;;;5053940;28;20225;-90
2021/01/02 06:51:31;;;;;;;6.20;4.43;;;2.60;99.90;;;;;;5053500;28;20663;-87
2021/01/02 06:53:58;;;;;;;8.20;4.53;;;2.50;99.90;;;;;;5053697;28;20201;-91
2021/01/02 06:56:42;;;;;;;5.93;4.30;;;2.50;99.90;;;;;;5053652;28;20194;-90
2021/01/02 06:59:22;;;;;;;8.63;5.00;;;2.50;99.90;;;;;;5049857;28;20255;-92
2021/01/02 07:01:49;;;;;;;11.60;6.37;;;2.50;99.90;;;;;;5047633;28;20236;-91
2021/01/02 07:04:15;;;;;;;7.23;4.93;;;2.60;99.90;;;;;;5037742;22;20249;-91
2021/01/02 07:06:44;;;;;;;11.63;5.70;;;2.60;99.90;;;;;;5028261;28;20219;-91
2021/01/02 07:09:25;;;;;;;9.93;6.00;;;2.60;99.90;;;;;;5030806;28;20201;-91
2021/01/02 07:12:08;;;;;;;8.00;5.00;;;2.60;99.90;;;;;;5033584;28;20205;-92
2021/01/02 07:14:35;;;;;;;8.27;4.77;;;2.60;99.90;;;;;;5033721;28;20598;-91
2021/01/02 07:17:05;;;;;;;9.57;4.93;;;2.60;99.90;;;;;;5032009;28;20284;-93
2021/01/02 07:19:43;;;;;;;10.63;5.17;;;2.50;99.90;;;;;;5033773;28;20214;-92
2021/01/02 07:22:21;;;;;;;9.93;5.40;;;2.60;99.90;;;;;;5033681;28;20226;-91
2021/01/02 07:24:49;;;;;;;6.57;4.20;;;2.50;99.90;;;;;;5033190;28;20195;-91
2021/01/02 07:27:18;;;;;;;9.77;4.93;;;2.50;99.90;;;;;;5029554;28;20638;-91
2021/01/02 07:29:46;;;;;;;13.40;5.43;;;2.40;99.90;;;;;;5027181;28;20209;-89
2021/01/02 07:32:15;;;;;;;8.50;5.03;;;2.40;99.90;;;;;;5026670;28;20202;-90
2021/01/02 07:34:42;;;;;;;7.77;4.77;;;2.40;99.90;;;;;;5026539;28;20256;-90
2021/01/02 07:37:11;;;;;;;7.33;5.00;;;2.40;99.90;;;;;;5028863;28;20234;-91
2021/01/02 07:39:37;;;;;;;6.10;4.47;;;2.40;99.90;;;;;;5032847;28;20241;-91
2021/01/02 07:42:06;;;;;;;8.20;4.53;;;2.40;99.90;;;;;;5032438;28;20960;-89
2021/01/02 07:44:33;;;;;;;6.30;4.27;;;2.40;99.90;;;;;;5032338;28;20207;-90
2021/01/02 07:47:00;;;;;;;14.20;5.40;;;2.40;99.90;;;;;;5032222;28;20187;-90
2021/01/02 07:49:27;;;;;;;18.93;9.63;;;2.40;99.90;;;;;;5032634;28;20278;-91
2021/01/02 07:51:54;;;;;;;18.40;7.67;;;2.40;99.90;;;;;;5032319;28;20202;-89
2021/01/02 07:54:30;;;;;;;17.87;7.20;;;2.40;99.90;;;;;;5042853;22;20905;-83
2021/01/02 07:56:57;;;;;;;17.83;7.60;;;2.50;99.90;;;;;;5053986;28;20217;-91
2021/01/02 07:59:24;;;;;;;11.37;6.23;;;2.60;99.90;;;;;;5052867;28;20202;-89
2021/01/02 08:01:52;;;;;;;9.23;4.33;;;2.60;99.90;;;;;;5051974;28;20618;-86
2021/01/02 08:04:19;;;;;;;8.20;3.30;;;2.70;99.90;;;;;;5051412;28;20213;-83
2021/01/02 08:06:48;;;;;;;13.17;3.57;;;2.80;99.90;;;;;;5052272;28;20206;-88
2021/01/02 08:09:14;;;;;;;8.03;3.00;;;2.90;99.90;;;;;;5052722;28;20926;-90
2021/01/02 08:11:51;;;;;;;8.93;2.80;;;3.00;99.90;;;;;;5053092;28;20374;-93
2021/01/02 08:14:17;;;;;;;6.80;3.23;;;3.00;99.90;;;;;;5052424;28;20201;-91
2021/01/02 08:16:58;;;;;;;7.90;3.27;;;3.10;99.90;;;;;;5051865;28;20193;-92
2021/01/02 08:19:24;;;;;;;5.70;2.73;;;3.10;99.90;;;;;;5052017;28;20205;-92
2021/01/02 08:21:52;;;;;;;7.37;3.60;;;3.20;99.90;;;;;;5053155;28;20210;-94
2021/01/02 08:24:20;;;;;;;8.03;2.97;;;3.20;99.90;;;;;;5051559;28;20210;-90
2021/01/02 08:26:47;;;;;;;11.17;2.97;;;3.20;99.90;;;;;;5052339;28;20202;-84
2021/01/02 08:29:14;;;;;;;14.70;4.17;;;3.30;99.90;;;;;;5051419;28;20206;-92
2021/01/02 08:31:46;;;;;;;6.60;2.97;;;3.30;99.90;;;;;;5051695;28;20196;-87
2021/01/02 08:51:44;;;;;;;3.87;1.83;;;3.20;99.90;;;;;;4926585;28;20208;-89
2021/01/02 08:54:14;;;;;;;5.33;2.03;;;3.20;99.90;;;;;;5036082;28;20203;-89
2021/01/02 08:56:40;;;;;;;6.13;2.70;;;3.20;99.90;;;;;;5049583;28;20644;-81
2021/01/02 08:59:11;;;;;;;5.37;2.67;;;3.10;99.90;;;;;;5048206;28;20201;-82
2021/01/02 09:01:38;;;;;;;6.43;2.80;;;3.10;99.90;;;;;;5048001;28;20213;-83
2021/01/02 09:04:11;;;;;;;5.03;2.23;;;3.20;99.90;;;;;;5047254;28;20229;-85
2021/01/02 09:06:37;;;;;;;6.37;2.83;;;3.20;99.90;;;;;;5048338;28;20864;-83
2021/01/02 09:09:06;;;;;;;4.17;2.27;;;3.20;99.90;;;;;;5048647;28;20274;-82
2021/01/02 09:11:46;;;;;;;3.60;2.87;;;3.20;99.90;;;;;;5047570;28;20238;-84
2021/01/02 09:14:12;;;;;;;5.93;2.80;;;3.10;99.90;;;;;;5048356;28;20205;-84
2021/01/02 09:16:38;;;;;;;3.87;2.90;;;3.10;99.90;;;;;;5047614;28;20289;-84
2021/01/02 09:19:05;;;;;;;3.60;2.60;;;3.10;99.90;;;;;;5047732;28;20205;-88
2021/01/02 09:21:31;;;;;;;3.43;2.90;;;3.10;99.90;;;;;;5047844;28;20205;-89
2021/01/02 09:23:58;;;;;;;6.17;3.10;;;3.10;99.90;;;;;;5047506;28;20253;-90
2021/01/02 09:26:34;;;;;;;5.03;3.60;;;3.20;99.90;;;;;;5050537;28;20198;-89
2021/01/02 09:29:03;;;;;;;4.73;3.20;;;3.20;99.90;;;;;;5050291;28;20216;-86
2021/01/02 09:31:35;;;;;;;4.70;3.23;;;3.20;99.90;;;;;;5047645;28;20210;-87
2021/01/02 09:34:02;;;;;;;6.63;3.70;;;3.20;99.90;;;;;;5045023;28;20325;-86
2021/01/02 09:36:28;;;;;;;5.33;4.00;;;3.30;99.90;;;;;;5044595;28;20267;-87
2021/01/02 09:38:54;;;;;;;10.57;6.17;;;3.40;99.90;;;;;;5045378;28;20205;-84
2021/01/02 09:41:23;;;;;;;11.63;6.23;;;3.50;99.90;;;;;;5045431;28;20213;-84
2021/01/02 09:43:53;;;;;;;8.43;3.70;;;3.70;99.90;;;;;;5044693;28;20341;-85
2021/01/02 09:46:20;;;;;;;8.87;3.20;;;3.90;99.90;;;;;;5045132;28;20201;-87
2021/01/02 09:48:48;;;;;;;6.67;2.10;;;4.20;99.90;;;;;;5045636;28;20244;-87
2021/01/02 09:51:15;;;;;;;6.03;2.13;;;4.50;99.90;;;;;;5044698;28;20271;-87
2021/01/02 09:53:42;;;;;;;7.13;3.20;;;4.60;99.90;;;;;;5045672;28;20945;-85
2021/01/02 09:56:09;;;;;;;9.07;2.17;;;4.70;99.90;;;;;;5047010;28;20242;-84
2021/01/02 09:58:36;;;;;;;6.73;2.70;;;4.90;99.90;;;;;;5047080;28;20273;-85
2021/01/02 10:01:03;;;;;;;10.43;2.93;;;5.10;99.90;;;;;;5047191;28;20379;-85
2021/01/02 10:03:29;;;;;;;5.30;2.20;;;5.20;99.90;;;;;;5046309;28;20914;-84
2021/01/02 10:05:55;;;;;;;5.17;1.63;;;5.30;99.90;;;;;;5046614;28;20891;-84
2021/01/02 10:08:23;;;;;;;3.30;1.60;;;5.30;99.90;;;;;;5051045;28;20927;-85
2021/01/02 10:10:50;;;;;;;6.33;2.20;;;5.30;99.90;;;;;;5050945;28;20310;-85
2021/01/02 10:13:16;;;;;;;2.33;1.07;;;5.30;99.90;;;;;;5050792;28;20205;-86
2021/01/02 10:15:43;;;;;;;1.37;1.27;;;5.30;99.90;;;;;;5053168;28;20190;-88
2021/01/02 10:18:10;;;;;;;5.00;2.13;;;5.30;99.90;;;;;;5053587;28;20198;-87
2021/01/02 10:20:36;;;;;;;5.40;2.37;;;5.30;99.90;;;;;;5053308;28;20190;-88
2021/01/02 10:23:03;;;;;;;8.77;3.50;;;5.20;99.90;;;;;;5052400;28;20222;-88
2021/01/02 10:25:29;;;;;;;13.00;3.70;;;5.30;99.90;;;;;;5052287;28;20228;-84
2021/01/02 10:27:56;;;;;;;6.70;3.03;;;5.30;99.90;;;;;;5051868;28;20910;-85
2021/01/02 10:30:23;;;;;;;5.70;3.50;;;5.30;99.90;;;;;;5051590;28;20198;-83
2021/01/02 10:32:50;;;;;;;6.07;3.10;;;5.30;99.90;;;;;;5049158;28;20202;-83
2021/01/02 10:35:17;;;;;;;6.10;3.57;;;5.30;99.90;;;;;;5048854;28;20202;-86
2021/01/02 10:37:46;;;;;;;3.90;2.90;;;5.30;99.90;;;;;;5050267;28;20202;-90
2021/01/02 10:40:14;;;;;;;5.73;2.80;;;5.30;99.90;;;;;;5051704;28;20206;-85
2021/01/02 10:42:41;;;;;;;4.70;3.07;;;5.30;99.90;;;;;;5050855;28;20248;-90
2021/01/02 10:45:12;;;;;;;9.37;3.80;;;5.30;99.90;;;;;;5050599;28;20206;-82
2021/01/02 10:47:38;;;;;;;7.23;5.20;;;5.40;99.90;;;;;;5051085;28;20198;-82
2021/01/02 10:50:07;;;;;;;23.60;15.00;;;5.50;99.90;;;;;;5050014;28;20202;-86
2021/01/02 10:52:33;;;;;;;11.93;7.43;;;5.60;99.90;;;;;;5051548;28;20656;-86
2021/01/02 10:55:00;;;;;;;4.90;3.53;;;5.80;99.90;;;;;;5051892;28;20295;-86
2021/01/02 10:57:27;;;;;;;7.17;4.30;;;6.00;99.90;;;;;;5051206;28;20222;-84
2021/01/02 10:59:55;;;;;;;4.90;1.53;;;6.10;99.90;;;;;;5052606;28;20210;-90
2021/01/02 11:02:22;;;;;;;5.00;1.00;;;6.20;99.90;;;;;;5051684;28;20313;-91
2021/01/02 11:04:50;;;;;;;3.60;0.80;;;6.10;99.90;;;;;;5050271;28;20210;-91
2021/01/02 11:07:23;;;;;;;1.90;0.60;;;6.10;99.90;;;;;;5050115;28;20206;-91
2021/01/02 11:09:49;;;;;;;2.57;0.90;;;6.00;99.90;;;;;;5050139;28;20916;-87
2021/01/02 11:12:16;;;;;;;40.73;37.73;;;6.00;99.90;;;;;;5050564;28;20260;-89
2021/01/02 11:14:42;;;;;;;30.53;28.23;;;5.90;99.90;;;;;;5052710;28;20861;-87
2021/01/02 11:17:08;;;;;;;17.07;15.63;;;5.90;99.90;;;;;;5052797;28;20205;-88
2021/01/02 11:19:35;;;;;;;8.83;8.13;;;5.80;99.90;;;;;;5052170;28;20202;-87
2021/01/02 11:22:03;;;;;;;4.40;4.07;;;5.80;99.90;;;;;;5051896;28;20202;-85
2021/01/02 11:24:32;;;;;;;4.30;1.27;;;5.90;99.90;;;;;;5052026;28;20849;-88
2021/01/02 11:27:00;;;;;;;2.63;0.77;;;5.90;99.90;;;;;;5050891;28;20209;-85
2021/01/02 11:29:29;;;;;;;1.30;0.60;;;5.90;99.90;;;;;;5051255;28;20205;-83
2021/01/02 11:31:56;;;;;;;2.00;0.80;;;5.90;99.90;;;;;;5050479;28;20221;-89
2021/01/02 11:34:24;;;;;;;1.80;0.80;;;5.90;99.90;;;;;;5050811;28;20193;-88
2021/01/02 11:36:51;;;;;;;1.03;0.60;;;5.90;99.90;;;;;;5051323;28;20199;-87
2021/01/02 11:39:18;;;;;;;3.17;0.90;;;5.90;99.90;;;;;;5051007;28;20210;-90
2021/01/02 11:41:46;;;;;;;2.70;0.80;;;5.90;99.90;;;;;;5051365;28;20210;-85
2021/01/02 11:44:17;;;;;;;1.00;0.70;;;5.90;99.90;;;;;;5051703;28;20240;-89
2021/01/02 11:46:45;;;;;;;1.23;0.70;;;6.00;99.90;;;;;;5052655;28;20194;-86
2021/01/02 11:49:13;;;;;;;2.87;0.80;;;5.90;99.90;;;;;;5051081;28;20206;-92
2021/01/02 11:51:42;;;;;;;4.47;0.90;;;6.00;99.90;;;;;;5052576;28;20202;-88
2021/01/02 11:54:08;;;;;;;2.77;0.90;;;6.00;99.90;;;;;;5052080;28;20197;-85
2021/01/02 11:56:35;;;;;;;5.10;2.03;;;6.00;99.90;;;;;;5051268;28;20233;-94
2021/01/02 11:59:05;;;;;;;8.97;3.07;;;6.00;99.90;;;;;;5051683;28;20198;-96
2021/01/02 12:01:36;;;;;;;9.27;3.03;;;6.00;99.90;;;;;;5051931;28;20305;-89
2021/01/02 12:04:04;;;;;;;7.10;2.80;;;6.10;99.90;;;;;;5051511;28;20230;-93
2021/01/02 12:06:31;;;;;;;9.93;4.20;;;6.10;99.90;;;;;;5051316;28;20202;-91
2021/01/02 12:08:58;;;;;;;5.37;3.70;;;6.10;99.90;;;;;;5052178;28;20213;-96
2021/01/02 12:11:29;;;;;;;6.57;4.87;;;6.10;99.90;;;;;;5052327;28;20256;-92
2021/01/02 12:13:55;;;;;;;8.50;4.50;;;6.20;99.90;;;;;;5050910;28;20485;-95
2021/01/02 12:16:30;;;;;;;10.20;5.10;;;6.20;99.90;;;;;;5051763;28;20202;-93
2021/01/02 12:18:57;;;;;;;12.30;4.40;;;6.20;99.90;;;;;;5051560;28;20620;-93
2021/01/02 12:21:23;;;;;;;6.83;3.83;;;6.20;99.90;;;;;;5050287;28;20519;-91
2021/01/02 12:23:49;;;;;;;8.10;3.93;;;6.30;99.90;;;;;;5051290;28;20226;-84
2021/01/02 12:26:16;;;;;;;4.73;3.37;;;6.40;99.90;;;;;;5050761;28;20202;-94
2021/01/02 12:28:45;;;;;;;10.57;2.40;;;6.30;99.90;;;;;;5051052;28;20217;-91
2021/01/02 12:31:15;;;;;;;4.20;1.90;;;6.30;99.90;;;;;;5050575;28;20689;-93
2021/01/02 12:33:43;;;;;;;6.03;1.63;;;6.30;99.90;;;;;;5051358;28;20202;-94
2021/01/02 12:36:10;;;;;;;5.80;1.97;;;6.40;99.90;;;;;;5051466;28;20202;-93
2021/01/02 12:38:38;;;;;;;5.50;2.60;;;6.30;99.90;;;;;;5050321;28;20206;-87
2021/01/02 12:41:04;;;;;;;5.53;2.10;;;6.20;99.90;;;;;;5051503;28;20308;-91
2021/01/02 12:43:30;;;;;;;4.50;1.90;;;6.30;99.90;;;;;;5050884;28;20221;-85
2021/01/02 12:45:59;;;;;;;5.13;1.53;;;6.30;99.90;;;;;;5051469;28;20197;-88
2021/01/02 12:48:25;;;;;;;6.47;2.53;;;6.20;99.90;;;;;;5051428;28;20205;-90
2021/01/02 12:50:54;;;;;;;7.23;3.00;;;6.20;99.90;;;;;;5051568;28;20194;-85
2021/01/02 12:53:20;;;;;;;11.97;3.73;;;6.10;99.90;;;;;;5051059;28;20505;-85
2021/01/02 12:55:47;;;;;;;10.67;4.17;;;6.10;99.90;;;;;;5050840;28;20225;-91
2021/01/02 12:58:14;;;;;;;7.47;3.70;;;6.10;99.90;;;;;;5051837;28;20190;-90
2021/01/02 13:00:40;;;;;;;7.47;3.60;;;6.20;99.90;;;;;;5052486;28;20787;-89
2021/01/02 13:03:07;;;;;;;11.53;3.10;;;6.20;99.90;;;;;;5058730;28;20537;-87
2021/01/02 13:05:33;;;;;;;9.43;2.50;;;6.30;99.90;;;;;;5065693;28;20216;-90
2021/01/02 13:08:02;;;;;;;6.50;2.50;;;6.40;99.90;;;;;;5061455;28;20216;-90
2021/01/02 13:10:28;;;;;;;5.40;2.27;;;6.40;99.90;;;;;;5053376;28;20565;-92
2021/01/02 13:12:54;;;;;;;7.47;1.60;;;6.50;99.90;;;;;;5025484;28;20209;-88
2021/01/02 13:15:21;;;;;;;2.33;0.70;;;6.60;99.90;;;;;;5056551;28;20425;-86
2021/01/02 13:17:47;;;;;;;3.93;0.70;;;6.60;99.90;;;;;;5044533;28;20278;-89
2021/01/02 13:20:15;;;;;;;2.07;0.70;;;6.60;99.90;;;;;;5052713;28;20715;-91
2021/01/02 13:22:41;;;;;;;2.70;0.80;;;6.60;99.90;;;;;;5055076;28;20223;-92
2021/01/02 13:25:09;;;;;;;2.60;0.47;;;6.60;99.90;;;;;;5064097;28;20209;-88
2021/01/02 13:27:39;;;;;;;2.60;0.40;;;6.60;99.90;;;;;;5071144;28;20205;-93
2021/01/02 13:30:06;;;;;;;1.20;0.60;;;6.50;99.90;;;;;;5071821;28;20307;-95
2021/01/02 13:32:32;;;;;;;2.73;0.70;;;6.50;99.90;;;;;;5077305;28;20183;-91
2021/01/02 13:34:59;;;;;;;1.93;0.87;;;6.40;99.90;;;;;;5082872;28;20204;-91